sensor_id;sensor_type;location;lat;lon;timestamp;pressure;altitude;pressure_sealevel;temperature;humidity
32320;BME280;19080;51.750;5.888;2023-06-19T00:00:28;100570.09;;;22.16;100.00
32320;BME280;19080;51.750;5.888;2023-06-19T00:02:57;100558.34;;;22.17;100.00
32320;BME280;19080;51.750;5.888;2023-06-19T00:05:24;100567.16;;;22.22;100.00
32320;BME280;19080;51.750;5.888;2023-06-19T00:07:51;100570.63;;;22.25;100.00
32320;BME280;19080;51.750;5.888;2023-06-19T00:10:19;100571.41;;;22.29;100.00
32320;BME280;19080;51.750;5.888;2023-06-19T00:12:45;100513.13;;;21.95;100.00
32320;BME280;19080;51.750;5.888;2023-06-19T00:15:12;100574.81;;;22.34;100.00
32320;BME280;19080;51.750;5.888;2023-06-19T00:17:39;100559.75;;;22.27;100.00
32320;BME280;19080;51.750;5.888;2023-06-19T00:20:07;100623.19;;;22.65;100.00
32320;BME280;19080;51.750;5.888;2023-06-19T00:22:34;100608.00;;;22.61;100.00
32320;BME280;19080;51.750;5.888;2023-06-19T00:25:00;100600.91;;;22.58;100.00
32320;BME280;19080;51.750;5.888;2023-06-19T00:27:27;100558.41;;;22.38;100.00
32320;BME280;19080;51.750;5.888;2023-06-19T00:29:54;100611.13;;;22.73;100.00
32320;BME280;19080;51.750;5.888;2023-06-19T00:32:21;100597.66;;;22.72;100.00
32320;BME280;19080;51.750;5.888;2023-06-19T00:34:48;100606.66;;;22.72;100.00
32320;BME280;19080;51.750;5.888;2023-06-19T00:37:14;100641.16;;;22.91;100.00
32320;BME280;19080;51.750;5.888;2023-06-19T00:39:41;100562.59;;;22.47;100.00
32320;BME280;19080;51.750;5.888;2023-06-19T00:42:10;100550.28;;;22.38;100.00
32320;BME280;19080;51.750;5.888;2023-06-19T00:44:37;100628.56;;;22.90;100.00
32320;BME280;19080;51.750;5.888;2023-06-19T00:47:04;100651.75;;;22.97;100.00
32320;BME280;19080;51.750;5.888;2023-06-19T00:49:32;100653.28;;;23.04;100.00
32320;BME280;19080;51.750;5.888;2023-06-19T00:51:59;100635.75;;;22.91;100.00
32320;BME280;19080;51.750;5.888;2023-06-19T00:54:26;100572.19;;;22.54;100.00
32320;BME280;19080;51.750;5.888;2023-06-19T00:56:52;100672.94;;;23.09;100.00
32320;BME280;19080;51.750;5.888;2023-06-19T00:59:20;100596.84;;;22.70;100.00
32320;BME280;19080;51.750;5.888;2023-06-19T01:01:48;100632.34;;;22.86;100.00
32320;BME280;19080;51.750;5.888;2023-06-19T01:04:14;100642.56;;;23.01;100.00
32320;BME280;19080;51.750;5.888;2023-06-19T01:07:01;100662.34;;;23.03;100.00
32320;BME280;19080;51.750;5.888;2023-06-19T01:09:34;100670.03;;;23.14;100.00
32320;BME280;19080;51.750;5.888;2023-06-19T01:12:13;100666.94;;;23.01;100.00
32320;BME280;19080;51.750;5.888;2023-06-19T01:15:11;100680.34;;;23.04;100.00
32320;BME280;19080;51.750;5.888;2023-06-19T01:17:40;100678.72;;;23.00;100.00
32320;BME280;19080;51.750;5.888;2023-06-19T01:20:08;100647.13;;;22.76;100.00
32320;BME280;19080;51.750;5.888;2023-06-19T01:22:37;100637.59;;;22.65;100.00
32320;BME280;19080;51.750;5.888;2023-06-19T01:25:05;100657.44;;;22.66;100.00
32320;BME280;19080;51.750;5.888;2023-06-19T01:27:34;100682.66;;;22.66;100.00
32320;BME280;19080;51.750;5.888;2023-06-19T01:30:03;100674.00;;;22.57;100.00
32320;BME280;19080;51.750;5.888;2023-06-19T01:32:41;100678.91;;;22.47;100.00
32320;BME280;19080;51.750;5.888;2023-06-19T01:35:12;100671.94;;;22.40;100.00
32320;BME280;19080;51.750;5.888;2023-06-19T01:37:41;100636.94;;;22.11;100.00
32320;BME280;19080;51.750;5.888;2023-06-19T01:40:09;100653.38;;;22.04;100.00
32320;BME280;19080;51.750;5.888;2023-06-19T01:42:39;100658.97;;;21.98;100.00
32320;BME280;19080;51.750;5.888;2023-06-19T01:45:08;100603.50;;;21.62;100.00
32320;BME280;19080;51.750;5.888;2023-06-19T01:47:35;100646.72;;;21.88;100.00
32320;BME280;19080;51.750;5.888;2023-06-19T01:50:02;100671.38;;;22.05;100.00
32320;BME280;19080;51.750;5.888;2023-06-19T01:52:29;100681.44;;;22.00;100.00
32320;BME280;19080;51.750;5.888;2023-06-19T01:54:55;100665.84;;;21.82;100.00
32320;BME280;19080;51.750;5.888;2023-06-19T01:57:23;100690.16;;;21.82;100.00
32320;BME280;19080;51.750;5.888;2023-06-19T01:59:50;100685.69;;;21.81;100.00
32320;BME280;19080;51.750;5.888;2023-06-19T02:02:17;100660.16;;;21.63;100.00
32320;BME280;19080;51.750;5.888;2023-06-19T02:04:43;100699.50;;;21.72;100.00
32320;BME280;19080;51.750;5.888;2023-06-19T02:07:10;100680.13;;;21.59;100.00
32320;BME280;19080;51.750;5.888;2023-06-19T02:09:37;100610.03;;;20.99;100.00
32320;BME280;19080;51.750;5.888;2023-06-19T02:12:05;100710.91;;;21.54;100.00
32320;BME280;19080;51.750;5.888;2023-06-19T02:14:31;100714.72;;;21.47;100.00
32320;BME280;19080;51.750;5.888;2023-06-19T02:16:58;100696.59;;;21.22;100.00
32320;BME280;19080;51.750;5.888;2023-06-19T02:19:25;100704.84;;;21.16;100.00
32320;BME280;19080;51.750;5.888;2023-06-19T02:21:55;100701.31;;;21.14;100.00
32320;BME280;19080;51.750;5.888;2023-06-19T02:24:24;100733.63;;;21.17;100.00
32320;BME280;19080;51.750;5.888;2023-06-19T02:26:51;100712.63;;;20.97;100.00
32320;BME280;19080;51.750;5.888;2023-06-19T02:29:18;100711.25;;;20.83;100.00
32320;BME280;19080;51.750;5.888;2023-06-19T02:31:45;100661.19;;;20.43;100.00
32320;BME280;19080;51.750;5.888;2023-06-19T02:34:11;100740.00;;;20.84;100.00
32320;BME280;19080;51.750;5.888;2023-06-19T02:36:38;100729.59;;;20.71;100.00
32320;BME280;19080;51.750;5.888;2023-06-19T02:39:05;100725.44;;;20.60;100.00
32320;BME280;19080;51.750;5.888;2023-06-19T02:41:34;100722.28;;;20.44;100.00
32320;BME280;19080;51.750;5.888;2023-06-19T02:44:02;100735.84;;;20.41;100.00
32320;BME280;19080;51.750;5.888;2023-06-19T02:46:29;100717.22;;;20.30;100.00
32320;BME280;19080;51.750;5.888;2023-06-19T02:48:56;100730.66;;;20.32;100.00
32320;BME280;19080;51.750;5.888;2023-06-19T02:51:22;100734.41;;;20.26;100.00
32320;BME280;19080;51.750;5.888;2023-06-19T02:53:49;100760.19;;;20.36;100.00
32320;BME280;19080;51.750;5.888;2023-06-19T02:56:16;100749.22;;;20.44;100.00
32320;BME280;19080;51.750;5.888;2023-06-19T02:58:44;100750.91;;;20.48;100.00
32320;BME280;19080;51.750;5.888;2023-06-19T03:01:11;100764.03;;;20.62;100.00
32320;BME280;19080;51.750;5.888;2023-06-19T03:03:38;100775.44;;;20.71;100.00
32320;BME280;19080;51.750;5.888;2023-06-19T03:06:05;100744.34;;;20.58;100.00
32320;BME280;19080;51.750;5.888;2023-06-19T03:08:37;100764.69;;;20.70;100.00
32320;BME280;19080;51.750;5.888;2023-06-19T03:11:04;100747.63;;;20.69;100.00
32320;BME280;19080;51.750;5.888;2023-06-19T03:13:47;100749.41;;;20.70;100.00
32320;BME280;19080;51.750;5.888;2023-06-19T03:16:14;100772.59;;;20.77;100.00
32320;BME280;19080;51.750;5.888;2023-06-19T03:18:42;100762.53;;;20.50;100.00
32320;BME280;19080;51.750;5.888;2023-06-19T03:21:14;100771.06;;;20.33;100.00
32320;BME280;19080;51.750;5.888;2023-06-19T03:23:43;100715.75;;;19.83;100.00
32320;BME280;19080;51.750;5.888;2023-06-19T03:26:10;100767.28;;;20.05;100.00
32320;BME280;19080;51.750;5.888;2023-06-19T03:28:39;100750.69;;;19.86;100.00
32320;BME280;19080;51.750;5.888;2023-06-19T03:31:07;100769.41;;;19.92;100.00
32320;BME280;19080;51.750;5.888;2023-06-19T03:33:34;100775.00;;;19.83;100.00
32320;BME280;19080;51.750;5.888;2023-06-19T03:36:01;100766.41;;;19.67;100.00
32320;BME280;19080;51.750;5.888;2023-06-19T03:38:37;100753.16;;;19.58;100.00
32320;BME280;19080;51.750;5.888;2023-06-19T03:41:04;100776.38;;;19.62;100.00
32320;BME280;19080;51.750;5.888;2023-06-19T03:43:31;100754.34;;;19.43;100.00
32320;BME280;19080;51.750;5.888;2023-06-19T03:45:58;100795.22;;;19.64;100.00
32320;BME280;19080;51.750;5.888;2023-06-19T03:48:24;100714.69;;;19.11;100.00
32320;BME280;19080;51.750;5.888;2023-06-19T03:50:51;100787.31;;;19.56;100.00
32320;BME280;19080;51.750;5.888;2023-06-19T03:53:18;100768.72;;;19.42;100.00
32320;BME280;19080;51.750;5.888;2023-06-19T03:55:45;100769.81;;;19.34;100.00
32320;BME280;19080;51.750;5.888;2023-06-19T03:58:12;100784.06;;;19.39;100.00
32320;BME280;19080;51.750;5.888;2023-06-19T04:00:41;100798.03;;;19.58;100.00
32320;BME280;19080;51.750;5.888;2023-06-19T04:03:07;100791.72;;;19.59;100.00
32320;BME280;19080;51.750;5.888;2023-06-19T04:05:36;100807.47;;;19.77;100.00
32320;BME280;19080;51.750;5.888;2023-06-19T04:08:03;100824.09;;;19.96;100.00
32320;BME280;19080;51.750;5.888;2023-06-19T04:10:30;100807.78;;;20.02;100.00
32320;BME280;19080;51.750;5.888;2023-06-19T04:13:00;100813.69;;;20.18;100.00
32320;BME280;19080;51.750;5.888;2023-06-19T04:15:29;100803.66;;;20.23;100.00
32320;BME280;19080;51.750;5.888;2023-06-19T04:17:58;100826.56;;;20.42;100.00
32320;BME280;19080;51.750;5.888;2023-06-19T04:20:27;100817.47;;;20.46;100.00
32320;BME280;19080;51.750;5.888;2023-06-19T04:22:54;100828.19;;;20.49;100.00
32320;BME280;19080;51.750;5.888;2023-06-19T04:25:21;100829.66;;;20.62;100.00
32320;BME280;19080;51.750;5.888;2023-06-19T04:27:49;100814.50;;;20.57;100.00
32320;BME280;19080;51.750;5.888;2023-06-19T04:30:15;100790.34;;;20.52;100.00
32320;BME280;19080;51.750;5.888;2023-06-19T04:32:42;100823.91;;;20.74;100.00
32320;BME280;19080;51.750;5.888;2023-06-19T04:35:09;100799.34;;;20.53;100.00
32320;BME280;19080;51.750;5.888;2023-06-19T04:37:37;100842.81;;;20.74;100.00
32320;BME280;19080;51.750;5.888;2023-06-19T04:40:04;100813.34;;;20.67;100.00
32320;BME280;19080;51.750;5.888;2023-06-19T04:42:31;100812.13;;;20.78;100.00
32320;BME280;19080;51.750;5.888;2023-06-19T04:44:57;100844.84;;;20.97;100.00
32320;BME280;19080;51.750;5.888;2023-06-19T04:47:26;100729.56;;;20.40;100.00
32320;BME280;19080;51.750;5.888;2023-06-19T04:50:09;100854.41;;;21.09;100.00
32320;BME280;19080;51.750;5.888;2023-06-19T04:52:36;100844.75;;;21.00;100.00
32320;BME280;19080;51.750;5.888;2023-06-19T04:55:07;100802.34;;;20.74;100.00
32320;BME280;19080;51.750;5.888;2023-06-19T04:57:36;100843.78;;;21.03;100.00
32320;BME280;19080;51.750;5.888;2023-06-19T05:00:06;100854.06;;;21.21;100.00
32320;BME280;19080;51.750;5.888;2023-06-19T05:02:33;100790.16;;;20.91;100.00
32320;BME280;19080;51.750;5.888;2023-06-19T05:05:00;100840.56;;;21.23;100.00
32320;BME280;19080;51.750;5.888;2023-06-19T05:07:30;100850.41;;;21.25;100.00
32320;BME280;19080;51.750;5.888;2023-06-19T05:10:00;100838.75;;;21.23;100.00
32320;BME280;19080;51.750;5.888;2023-06-19T05:12:27;100836.69;;;21.33;100.00
32320;BME280;19080;51.750;5.888;2023-06-19T05:14:54;100846.41;;;21.38;100.00
32320;BME280;19080;51.750;5.888;2023-06-19T05:17:20;100854.19;;;21.49;100.00
32320;BME280;19080;51.750;5.888;2023-06-19T05:19:48;100832.06;;;21.36;100.00
32320;BME280;19080;51.750;5.888;2023-06-19T05:22:14;100868.50;;;21.53;100.00
32320;BME280;19080;51.750;5.888;2023-06-19T05:24:41;100855.94;;;21.52;100.00
32320;BME280;19080;51.750;5.888;2023-06-19T05:27:08;100853.22;;;21.52;100.00
32320;BME280;19080;51.750;5.888;2023-06-19T05:29:35;100867.53;;;21.55;100.00
32320;BME280;19080;51.750;5.888;2023-06-19T05:32:02;100863.94;;;21.55;100.00
32320;BME280;19080;51.750;5.888;2023-06-19T05:34:29;100865.69;;;21.56;100.00
32320;BME280;19080;51.750;5.888;2023-06-19T05:36:57;100789.38;;;21.18;100.00
32320;BME280;19080;51.750;5.888;2023-06-19T05:39:24;100853.84;;;21.61;100.00
32320;BME280;19080;51.750;5.888;2023-06-19T05:41:51;100870.75;;;21.68;100.00
32320;BME280;19080;51.750;5.888;2023-06-19T05:44:17;100870.00;;;21.63;100.00
32320;BME280;19080;51.750;5.888;2023-06-19T05:46:45;100867.81;;;21.75;100.00
32320;BME280;19080;51.750;5.888;2023-06-19T05:49:13;100866.97;;;21.73;100.00
32320;BME280;19080;51.750;5.888;2023-06-19T05:51:39;100873.22;;;21.75;100.00
32320;BME280;19080;51.750;5.888;2023-06-19T05:54:07;100864.22;;;21.75;100.00
32320;BME280;19080;51.750;5.888;2023-06-19T05:56:34;100851.97;;;21.63;100.00
32320;BME280;19080;51.750;5.888;2023-06-19T05:59:00;100862.59;;;21.69;100.00
32320;BME280;19080;51.750;5.888;2023-06-19T06:01:31;100880.28;;;21.80;100.00
32320;BME280;19080;51.750;5.888;2023-06-19T06:03:58;100879.03;;;21.91;100.00
32320;BME280;19080;51.750;5.888;2023-06-19T06:06:25;100885.28;;;21.93;100.00
32320;BME280;19080;51.750;5.888;2023-06-19T06:08:54;100870.19;;;21.86;100.00
32320;BME280;19080;51.750;5.888;2023-06-19T06:11:22;100888.78;;;21.97;100.00
32320;BME280;19080;51.750;5.888;2023-06-19T06:13:49;100899.63;;;22.25;100.00
32320;BME280;19080;51.750;5.888;2023-06-19T06:16:16;100899.84;;;22.19;100.00
32320;BME280;19080;51.750;5.888;2023-06-19T06:18:44;100798.63;;;21.70;100.00
32320;BME280;19080;51.750;5.888;2023-06-19T06:21:11;100902.97;;;22.33;100.00
32320;BME280;19080;51.750;5.888;2023-06-19T06:23:41;100903.66;;;22.39;100.00
32320;BME280;19080;51.750;5.888;2023-06-19T06:26:08;100905.25;;;22.47;100.00
32320;BME280;19080;51.750;5.888;2023-06-19T06:28:34;100910.22;;;22.59;100.00
32320;BME280;19080;51.750;5.888;2023-06-19T06:31:01;100917.88;;;22.72;100.00
32320;BME280;19080;51.750;5.888;2023-06-19T06:33:28;100915.81;;;22.81;100.00
32320;BME280;19080;51.750;5.888;2023-06-19T06:35:57;100857.22;;;22.53;100.00
32320;BME280;19080;51.750;5.888;2023-06-19T06:38:23;100937.63;;;23.02;100.00
32320;BME280;19080;51.750;5.888;2023-06-19T06:40:50;100931.63;;;23.19;100.00
32320;BME280;19080;51.750;5.888;2023-06-19T06:43:17;100882.53;;;23.03;100.00
32320;BME280;19080;51.750;5.888;2023-06-19T06:45:44;100937.69;;;23.51;100.00
32320;BME280;19080;51.750;5.888;2023-06-19T06:48:10;100900.03;;;23.43;100.00
32320;BME280;19080;51.750;5.888;2023-06-19T06:50:37;100954.13;;;23.71;100.00
32320;BME280;19080;51.750;5.888;2023-06-19T06:53:04;100956.50;;;23.80;100.00
32320;BME280;19080;51.750;5.888;2023-06-19T06:55:30;100940.66;;;23.93;100.00
32320;BME280;19080;51.750;5.888;2023-06-19T06:57:57;100959.00;;;24.10;100.00
32320;BME280;19080;51.750;5.888;2023-06-19T07:00:24;100952.97;;;24.25;100.00
32320;BME280;19080;51.750;5.888;2023-06-19T07:02:51;100875.88;;;23.85;100.00
32320;BME280;19080;51.750;5.888;2023-06-19T07:05:18;100899.81;;;23.97;100.00
32320;BME280;19080;51.750;5.888;2023-06-19T07:07:44;100949.59;;;24.18;100.00
32320;BME280;19080;51.750;5.888;2023-06-19T07:10:11;100966.03;;;24.37;100.00
32320;BME280;19080;51.750;5.888;2023-06-19T07:12:47;100907.22;;;24.16;100.00
32320;BME280;19080;51.750;5.888;2023-06-19T07:15:15;100920.25;;;24.51;100.00
32320;BME280;19080;51.750;5.888;2023-06-19T07:17:43;100971.09;;;24.90;100.00
32320;BME280;19080;51.750;5.888;2023-06-19T07:20:10;100954.63;;;24.73;100.00
32320;BME280;19080;51.750;5.888;2023-06-19T07:22:37;100956.84;;;25.07;100.00
32320;BME280;19080;51.750;5.888;2023-06-19T07:25:04;100973.97;;;25.29;100.00
32320;BME280;19080;51.750;5.888;2023-06-19T07:27:31;100985.88;;;25.47;100.00
32320;BME280;19080;51.750;5.888;2023-06-19T07:29:58;100914.13;;;25.10;100.00
32320;BME280;19080;51.750;5.888;2023-06-19T07:32:25;100964.41;;;24.77;97.51
32320;BME280;19080;51.750;5.888;2023-06-19T07:34:53;100910.56;;;24.44;98.10
32320;BME280;19080;51.750;5.888;2023-06-19T07:37:20;100940.69;;;24.82;97.32
32320;BME280;19080;51.750;5.888;2023-06-19T07:39:50;100968.22;;;25.57;93.61
32320;BME280;19080;51.750;5.888;2023-06-19T07:42:18;100934.25;;;25.47;87.28
32320;BME280;19080;51.750;5.888;2023-06-19T07:44:45;100991.84;;;25.96;86.90
32320;BME280;19080;51.750;5.888;2023-06-19T07:47:13;100986.34;;;26.16;83.46
32320;BME280;19080;51.750;5.888;2023-06-19T07:49:40;101000.28;;;26.47;80.71
32320;BME280;19080;51.750;5.888;2023-06-19T07:52:07;100990.56;;;26.61;76.94
32320;BME280;19080;51.750;5.888;2023-06-19T07:54:50;100950.38;;;25.90;80.24
32320;BME280;19080;51.750;5.888;2023-06-19T07:57:18;101012.94;;;25.90;79.22
32320;BME280;19080;51.750;5.888;2023-06-19T07:59:45;100952.50;;;25.23;82.09
32320;BME280;19080;51.750;5.888;2023-06-19T08:02:12;100945.53;;;25.38;83.20
32320;BME280;19080;51.750;5.888;2023-06-19T08:04:38;100998.75;;;25.84;80.29
32320;BME280;19080;51.750;5.888;2023-06-19T08:07:05;101018.78;;;26.20;79.14
32320;BME280;19080;51.750;5.888;2023-06-19T08:09:32;100920.75;;;25.64;80.02
32320;BME280;19080;51.750;5.888;2023-06-19T08:11:59;101005.59;;;26.50;78.34
32320;BME280;19080;51.750;5.888;2023-06-19T08:14:26;100995.56;;;26.32;76.17
32320;BME280;19080;51.750;5.888;2023-06-19T08:16:52;101006.97;;;26.40;76.36
32320;BME280;19080;51.750;5.888;2023-06-19T08:19:19;101003.34;;;26.21;76.52
32320;BME280;19080;51.750;5.888;2023-06-19T08:21:45;101014.66;;;26.12;76.62
32320;BME280;19080;51.750;5.888;2023-06-19T08:24:12;101011.69;;;26.55;73.49
32320;BME280;19080;51.750;5.888;2023-06-19T08:26:39;100941.13;;;26.51;69.73
32320;BME280;19080;51.750;5.888;2023-06-19T08:29:05;101017.19;;;27.45;68.47
32320;BME280;19080;51.750;5.888;2023-06-19T08:31:32;101022.44;;;28.00;64.99
32320;BME280;19080;51.750;5.888;2023-06-19T08:34:00;101018.31;;;28.26;64.47
32320;BME280;19080;51.750;5.888;2023-06-19T08:36:30;100966.16;;;27.81;62.28
32320;BME280;19080;51.750;5.888;2023-06-19T08:38:57;101027.59;;;27.88;62.40
32320;BME280;19080;51.750;5.888;2023-06-19T08:41:24;101028.75;;;28.50;61.70
32320;BME280;19080;51.750;5.888;2023-06-19T08:43:51;100943.03;;;28.37;60.34
32320;BME280;19080;51.750;5.888;2023-06-19T08:46:18;101005.09;;;29.44;56.93
32320;BME280;19080;51.750;5.888;2023-06-19T08:48:48;101023.81;;;29.50;55.88
32320;BME280;19080;51.750;5.888;2023-06-19T08:51:15;101004.75;;;29.78;54.91
32320;BME280;19080;51.750;5.888;2023-06-19T08:53:54;100960.13;;;29.48;54.09
32320;BME280;19080;51.750;5.888;2023-06-19T08:56:21;101029.19;;;29.22;55.29
32320;BME280;19080;51.750;5.888;2023-06-19T08:58:47;100974.75;;;28.71;57.03
32320;BME280;19080;51.750;5.888;2023-06-19T09:01:18;101033.97;;;28.71;57.16
32320;BME280;19080;51.750;5.888;2023-06-19T09:03:49;101037.53;;;28.40;57.85
32320;BME280;19080;51.750;5.888;2023-06-19T09:06:19;101025.63;;;28.25;58.77
32320;BME280;19080;51.750;5.888;2023-06-19T09:08:57;101034.50;;;27.78;59.82
32320;BME280;19080;51.750;5.888;2023-06-19T09:11:24;101017.88;;;27.67;58.32
32320;BME280;19080;51.750;5.888;2023-06-19T09:13:57;101022.63;;;27.79;58.23
32320;BME280;19080;51.750;5.888;2023-06-19T09:16:36;101053.22;;;28.19;57.71
32320;BME280;19080;51.750;5.888;2023-06-19T09:19:03;100983.53;;;28.29;54.74
32320;BME280;19080;51.750;5.888;2023-06-19T09:21:30;100973.06;;;28.69;54.69
32320;BME280;19080;51.750;5.888;2023-06-19T09:24:15;101049.78;;;29.73;53.79
32320;BME280;19080;51.750;5.888;2023-06-19T09:26:42;101064.66;;;30.13;52.01
32320;BME280;19080;51.750;5.888;2023-06-19T09:29:13;101042.69;;;29.99;52.38
32320;BME280;19080;51.750;5.888;2023-06-19T09:31:42;100931.81;;;29.63;53.01
32320;BME280;19080;51.750;5.888;2023-06-19T09:34:09;101063.69;;;30.71;51.06
32320;BME280;19080;51.750;5.888;2023-06-19T09:36:36;101007.16;;;30.13;50.31
32320;BME280;19080;51.750;5.888;2023-06-19T09:39:04;101048.63;;;30.21;48.60
32320;BME280;19080;51.750;5.888;2023-06-19T09:41:31;101048.31;;;29.67;49.28
32320;BME280;19080;51.750;5.888;2023-06-19T09:43:59;101046.53;;;29.66;50.56
32320;BME280;19080;51.750;5.888;2023-06-19T09:46:29;101055.66;;;30.25;48.55
32320;BME280;19080;51.750;5.888;2023-06-19T09:49:00;101078.25;;;30.29;47.74
32320;BME280;19080;51.750;5.888;2023-06-19T09:51:31;101084.59;;;29.85;49.30
32320;BME280;19080;51.750;5.888;2023-06-19T09:53:59;101066.34;;;30.00;49.03
32320;BME280;19080;51.750;5.888;2023-06-19T09:56:28;101079.31;;;30.12;49.01
32320;BME280;19080;51.750;5.888;2023-06-19T09:58:57;101074.34;;;30.47;46.85
32320;BME280;19080;51.750;5.888;2023-06-19T10:01:27;101073.31;;;31.05;47.06
32320;BME280;19080;51.750;5.888;2023-06-19T10:04:05;101067.00;;;31.44;44.08
32320;BME280;19080;51.750;5.888;2023-06-19T10:06:32;101027.72;;;30.90;44.19
32320;BME280;19080;51.750;5.888;2023-06-19T10:09:07;101077.19;;;30.74;44.94
32320;BME280;19080;51.750;5.888;2023-06-19T10:11:48;101078.59;;;31.35;44.32
32320;BME280;19080;51.750;5.888;2023-06-19T10:14:15;101023.47;;;30.71;44.15
32320;BME280;19080;51.750;5.888;2023-06-19T10:16:45;101012.78;;;30.53;44.80
32320;BME280;19080;51.750;5.888;2023-06-19T10:19:16;101074.41;;;31.29;44.29
32320;BME280;19080;51.750;5.888;2023-06-19T10:21:48;101028.66;;;30.62;43.73
32320;BME280;19080;51.750;5.888;2023-06-19T10:24:16;101074.72;;;30.84;43.21
32320;BME280;19080;51.750;5.888;2023-06-19T10:27:01;101074.66;;;30.71;42.79
32320;BME280;19080;51.750;5.888;2023-06-19T10:29:40;101076.56;;;30.97;43.74
32320;BME280;19080;51.750;5.888;2023-06-19T10:32:19;101083.16;;;30.52;44.48
32320;BME280;19080;51.750;5.888;2023-06-19T10:34:47;101062.31;;;30.35;45.65
32320;BME280;19080;51.750;5.888;2023-06-19T10:37:16;101024.84;;;30.64;45.06
32320;BME280;19080;51.750;5.888;2023-06-19T10:39:43;101076.56;;;30.97;43.51
32320;BME280;19080;51.750;5.888;2023-06-19T10:42:10;101071.16;;;31.37;42.84
32320;BME280;19080;51.750;5.888;2023-06-19T10:44:36;101071.53;;;31.85;42.86
32320;BME280;19080;51.750;5.888;2023-06-19T10:47:05;101067.03;;;32.60;41.40
32320;BME280;19080;51.750;5.888;2023-06-19T10:49:34;101061.75;;;32.82;39.87
32320;BME280;19080;51.750;5.888;2023-06-19T10:52:01;101063.06;;;32.64;40.83
32320;BME280;19080;51.750;5.888;2023-06-19T10:54:28;101059.78;;;32.08;41.75
32320;BME280;19080;51.750;5.888;2023-06-19T10:56:56;101057.47;;;32.15;41.75
32320;BME280;19080;51.750;5.888;2023-06-19T10:59:23;101042.56;;;32.31;41.23
32320;BME280;19080;51.750;5.888;2023-06-19T11:01:52;101018.59;;;32.46;40.32
32320;BME280;19080;51.750;5.888;2023-06-19T11:04:18;101058.66;;;33.11;39.65
32320;BME280;19080;51.750;5.888;2023-06-19T11:06:45;101042.25;;;33.57;37.93
32320;BME280;19080;51.750;5.888;2023-06-19T11:09:14;101051.00;;;33.51;38.82
32320;BME280;19080;51.750;5.888;2023-06-19T11:11:45;101071.41;;;33.83;37.92
32320;BME280;19080;51.750;5.888;2023-06-19T11:14:14;101048.97;;;33.42;37.90
32320;BME280;19080;51.750;5.888;2023-06-19T11:16:44;101016.84;;;32.32;38.99
32320;BME280;19080;51.750;5.888;2023-06-19T11:19:21;101045.50;;;32.03;39.25
32320;BME280;19080;51.750;5.888;2023-06-19T11:21:50;101002.31;;;31.27;40.49
32320;BME280;19080;51.750;5.888;2023-06-19T11:24:18;101031.66;;;31.13;41.18
32320;BME280;19080;51.750;5.888;2023-06-19T11:26:47;101051.16;;;31.08;41.82
32320;BME280;19080;51.750;5.888;2023-06-19T11:29:22;101086.00;;;31.47;41.05
32320;BME280;19080;51.750;5.888;2023-06-19T11:31:49;101064.47;;;31.41;41.05
32320;BME280;19080;51.750;5.888;2023-06-19T11:34:17;101004.63;;;31.33;40.76
32320;BME280;19080;51.750;5.888;2023-06-19T11:36:48;101052.75;;;32.04;41.16
32320;BME280;19080;51.750;5.888;2023-06-19T11:39:15;101051.22;;;32.51;39.61
32320;BME280;19080;51.750;5.888;2023-06-19T11:41:45;101049.00;;;32.81;37.09
32320;BME280;19080;51.750;5.888;2023-06-19T11:44:12;101057.56;;;32.64;38.25
32320;BME280;19080;51.750;5.888;2023-06-19T11:46:39;101039.22;;;32.77;37.13
32320;BME280;19080;51.750;5.888;2023-06-19T11:49:18;101054.28;;;32.59;38.51
32320;BME280;19080;51.750;5.888;2023-06-19T11:51:46;101045.41;;;33.63;37.38
32320;BME280;19080;51.750;5.888;2023-06-19T11:54:14;100956.63;;;34.06;36.52
32320;BME280;19080;51.750;5.888;2023-06-19T11:56:47;101033.25;;;35.02;35.99
32320;BME280;19080;51.750;5.888;2023-06-19T11:59:16;101028.84;;;34.45;34.37
32320;BME280;19080;51.750;5.888;2023-06-19T12:01:43;100984.94;;;33.97;33.36
32320;BME280;19080;51.750;5.888;2023-06-19T12:04:09;101031.31;;;34.59;33.52
32320;BME280;19080;51.750;5.888;2023-06-19T12:06:36;101041.47;;;34.58;32.26
32320;BME280;19080;51.750;5.888;2023-06-19T12:09:04;101047.25;;;34.55;33.28
32320;BME280;19080;51.750;5.888;2023-06-19T12:11:33;101039.31;;;34.28;33.77
32320;BME280;19080;51.750;5.888;2023-06-19T12:14:00;100969.41;;;34.63;34.61
32320;BME280;19080;51.750;5.888;2023-06-19T12:16:27;101026.13;;;34.77;31.76
32320;BME280;19080;51.750;5.888;2023-06-19T12:18:55;101035.03;;;34.80;30.37
32320;BME280;19080;51.750;5.888;2023-06-19T12:21:21;100977.38;;;34.88;31.02
32320;BME280;19080;51.750;5.888;2023-06-19T12:24:03;100985.72;;;35.41;30.56
32320;BME280;19080;51.750;5.888;2023-06-19T12:26:31;101033.41;;;36.27;30.74
32320;BME280;19080;51.750;5.888;2023-06-19T12:29:05;101025.38;;;35.93;30.33
32320;BME280;19080;51.750;5.888;2023-06-19T12:31:34;101028.88;;;36.56;29.62
32320;BME280;19080;51.750;5.888;2023-06-19T12:34:03;101034.25;;;36.78;29.95
32320;BME280;19080;51.750;5.888;2023-06-19T12:36:49;101031.41;;;36.69;28.72
32320;BME280;19080;51.750;5.888;2023-06-19T12:39:16;101038.94;;;36.27;29.42
32320;BME280;19080;51.750;5.888;2023-06-19T12:41:43;101002.97;;;35.54;29.74
32320;BME280;19080;51.750;5.888;2023-06-19T12:44:10;101049.81;;;36.49;29.49
32320;BME280;19080;51.750;5.888;2023-06-19T12:46:37;101049.91;;;36.68;29.29
32320;BME280;19080;51.750;5.888;2023-06-19T12:49:04;101051.66;;;36.69;28.18